createdAt,value
2023-05-10T04:31:32.966Z,19.5018
2023-05-10T04:32:35.035Z,19.1393
2023-05-10T04:33:37.042Z,19.1822
2023-05-10T04:34:39.169Z,19.3155
2023-05-10T04:35:41.194Z,19.4677
2023-05-10T04:36:43.201Z,19.6017
2023-05-10T04:37:45.884Z,19.7348
2023-05-10T04:38:47.283Z,19.8373
2023-05-10T04:39:51.897Z,19.8901
2023-05-10T04:40:51.379Z,19.9501
2023-05-10T04:41:53.439Z,20.0049
2023-05-10T04:42:55.466Z,20.0694
2023-05-10T04:43:57.510Z,20.0807
2023-05-10T04:44:59.596Z,20.0977
2023-05-10T04:46:01.614Z,20.1511
2023-05-10T04:47:03.643Z,20.2086
2023-05-10T04:48:05.777Z,20.2618
2023-05-10T04:49:07.723Z,20.2982
2023-05-10T04:50:09.751Z,20.3079
2023-05-10T04:51:11.800Z,20.3660
2023-05-10T04:52:13.861Z,20.4112
2023-05-10T04:53:16.056Z,20.4362
2023-05-10T04:54:17.941Z,20.4352
2023-05-10T04:55:19.988Z,20.4348
2023-05-10T04:56:22.025Z,20.4488
2023-05-10T04:57:24.066Z,20.4755
2023-05-10T04:58:26.104Z,20.4944
2023-05-10T04:59:28.211Z,20.4917
2023-05-10T05:00:30.189Z,20.5071
2023-05-10T05:01:32.319Z,20.4660
2023-05-10T05:02:34.371Z,20.5003
2023-05-10T05:03:36.342Z,20.5291
2023-05-10T05:04:38.365Z,20.5038
2023-05-10T05:05:40.410Z,20.5147
2023-05-10T05:06:42.467Z,20.5246
2023-05-10T05:07:44.492Z,20.5094
2023-05-10T05:08:46.528Z,20.4557
2023-05-10T05:09:48.584Z,20.4966
2023-05-10T05:10:50.698Z,20.5412
2023-05-10T05:11:52.681Z,20.5463
2023-05-10T05:12:54.731Z,20.5274
2023-05-10T05:13:56.740Z,20.5098
2023-05-10T05:14:58.800Z,20.5001
2023-05-10T05:16:00.857Z,20.5067
2023-05-10T05:17:02.881Z,20.5009
2023-05-10T05:18:04.994Z,20.5026
2023-05-10T05:19:06.971Z,20.4972
2023-05-10T05:20:09.024Z,20.5459
2023-05-10T05:21:11.072Z,20.5650
2023-05-10T05:22:13.114Z,20.5691
2023-05-10T05:23:15.142Z,20.5636
2023-05-10T05:24:17.194Z,20.6014
2023-05-10T05:25:19.244Z,20.6151
2023-05-10T05:26:21.301Z,20.6129
2023-05-10T05:27:23.326Z,20.5969
2023-05-10T05:28:25.377Z,20.6080
2023-05-10T05:29:27.442Z,20.5979
2023-05-10T05:30:29.443Z,20.5882
2023-05-10T05:31:31.558Z,20.5827
2023-05-10T05:32:33.724Z,20.5866
2023-05-10T05:33:37.531Z,20.5964
2023-05-10T05:34:37.639Z,20.6052
2023-05-10T05:35:40.478Z,20.6312
2023-05-10T05:36:41.731Z,20.7047
2023-05-10T05:37:43.788Z,20.7766
2023-05-10T05:38:45.802Z,20.8078
2023-05-10T05:39:47.957Z,20.8485
2023-05-10T05:40:50.045Z,20.8701
2023-05-10T05:41:51.960Z,20.8390
2023-05-10T05:42:53.986Z,20.8205
2023-05-10T05:43:56.043Z,20.8051
2023-05-10T05:44:58.059Z,20.8208
2023-05-10T05:46:00.202Z,20.8464
2023-05-10T05:47:02.284Z,20.8832
2023-05-10T05:48:04.359Z,20.8992
2023-05-10T05:49:06.306Z,20.9350
2023-05-10T05:50:08.355Z,20.9623
2023-05-10T05:51:12.063Z,20.9715
2023-05-10T05:52:12.400Z,20.9742
2023-05-10T05:53:31.400Z,20.9962
2023-05-10T05:54:17.803Z,21.0579
2023-05-10T05:55:20.552Z,21.0693
2023-05-10T05:56:20.614Z,21.0805
2023-05-10T05:57:22.630Z,21.0991
2023-05-10T05:58:24.671Z,21.1274
2023-05-10T05:59:26.757Z,21.1365
2023-05-10T06:00:31.513Z,21.1291
2023-05-10T06:01:31.361Z,21.1161
2023-05-10T06:02:32.946Z,21.1282
2023-05-10T06:03:35.032Z,21.1418
2023-05-10T06:04:36.994Z,21.1839
2023-05-10T06:05:39.009Z,21.1625
2023-05-10T06:06:42.009Z,21.1500
2023-05-10T06:07:43.906Z,21.1342
2023-05-10T06:08:45.121Z,21.0644
2023-05-10T06:09:47.201Z,21.1264
2023-05-10T06:10:49.227Z,21.0876
2023-05-10T06:11:51.323Z,21.0598
2023-05-10T06:12:53.419Z,21.0761
2023-05-10T06:13:55.408Z,21.0989
2023-05-10T06:14:57.460Z,21.1087
2023-05-10T06:15:59.490Z,21.1498
2023-05-10T06:17:01.830Z,21.1397
2023-05-10T06:18:06.688Z,21.1217
2023-05-10T06:19:06.764Z,21.1201
2023-05-10T06:20:07.664Z,21.0772
2023-05-10T06:21:09.691Z,21.0679
2023-05-10T06:22:12.729Z,21.0483
2023-05-10T06:23:13.809Z,21.0001
2023-05-10T06:24:14.308Z,21.0282
2023-05-10T06:25:20.527Z,21.0496
2023-05-10T06:26:20.058Z,21.0113
2023-05-10T06:27:21.992Z,20.9890
2023-05-10T06:28:27.057Z,20.9181
2023-05-10T06:29:26.068Z,20.8384
2023-05-10T06:30:28.120Z,20.7895
2023-05-10T06:31:30.220Z,20.6837
2023-05-10T06:32:32.266Z,20.7534
2023-05-10T06:33:34.336Z,20.7856
2023-05-10T06:34:36.315Z,20.7887
2023-05-10T06:35:38.348Z,20.7756
2023-05-10T06:36:40.390Z,20.7772
2023-05-10T06:37:42.447Z,20.7425
2023-05-10T06:38:44.467Z,20.6755
2023-05-10T06:39:46.526Z,20.6160
2023-05-10T06:40:48.580Z,20.6229
2023-05-10T06:41:50.603Z,20.6792
2023-05-10T06:42:52.692Z,20.7164
2023-05-10T06:43:54.865Z,20.7199
2023-05-10T06:44:56.729Z,20.7388
2023-05-10T06:45:58.847Z,20.7772
2023-05-10T06:47:00.846Z,20.7945
2023-05-10T06:48:04.577Z,20.7897
2023-05-10T06:49:04.937Z,20.7550
2023-05-10T06:50:07.028Z,20.7267
2023-05-10T06:51:09.043Z,20.7226
2023-05-10T06:52:11.164Z,20.6747
2023-05-10T06:53:13.104Z,20.6823
2023-05-10T06:54:15.191Z,20.7482
2023-05-10T06:55:17.455Z,20.8043
2023-05-10T06:56:19.261Z,20.7842
2023-05-10T06:57:31.169Z,20.8043
2023-05-10T06:58:23.328Z,20.8107
2023-05-10T06:59:25.452Z,20.8058
2023-05-10T07:00:27.473Z,20.8021
2023-05-10T07:01:29.493Z,20.8082
2023-05-10T07:02:31.545Z,20.7807
2023-05-10T07:03:33.613Z,20.7538
2023-05-10T07:04:35.693Z,20.7791
2023-05-10T07:05:37.860Z,20.7795
2023-05-10T07:06:39.734Z,20.7439
2023-05-10T07:07:41.767Z,20.7686
2023-05-10T07:08:43.820Z,20.8103
2023-05-10T07:09:45.869Z,20.8208
2023-05-10T07:10:47.909Z,20.8318
2023-05-10T07:11:49.942Z,20.8265
2023-05-10T07:12:52.226Z,20.8292
2023-05-10T07:13:56.063Z,20.8464
2023-05-10T07:14:56.096Z,20.8195
2023-05-10T07:15:58.123Z,20.7920
2023-05-10T07:17:00.296Z,20.8179
2023-05-10T07:18:02.288Z,20.8199
2023-05-10T07:19:04.270Z,20.8674
2023-05-10T07:20:06.388Z,20.9208
2023-05-10T07:21:08.354Z,20.9713
2023-05-10T07:22:10.404Z,20.9808
2023-05-10T07:23:12.445Z,21.0407
2023-05-10T07:24:14.511Z,21.0282
2023-05-10T07:25:16.623Z,20.9861
2023-05-10T07:26:18.617Z,20.9865
2023-05-10T07:27:20.605Z,21.0089
2023-05-10T07:28:22.688Z,20.9728
2023-05-10T07:29:24.764Z,20.9586
2023-05-10T07:30:26.780Z,20.9374
2023-05-10T07:31:28.893Z,20.8310
2023-05-10T07:32:30.886Z,20.8290
2023-05-10T07:33:32.964Z,20.8119
2023-05-10T07:34:34.966Z,20.8080
2023-05-10T07:35:37.100Z,20.8078
2023-05-10T07:36:39.034Z,20.7784
2023-05-10T07:37:41.112Z,20.7760
2023-05-10T07:38:43.136Z,20.7669
2023-05-10T07:39:45.216Z,20.8058
2023-05-10T07:40:47.207Z,20.7840
2023-05-10T07:41:49.279Z,20.7749
2023-05-10T07:42:51.322Z,20.8263
2023-05-10T07:43:53.360Z,20.8070
2023-05-10T07:44:55.399Z,20.7977
2023-05-10T07:45:57.470Z,20.8156
2023-05-10T07:46:59.484Z,20.7906
2023-05-10T07:48:01.553Z,20.8002
2023-05-10T07:49:03.591Z,20.8848
2023-05-10T07:50:07.874Z,20.9401
2023-05-10T07:51:07.688Z,20.9692
2023-05-10T07:52:09.747Z,20.9777
2023-05-10T07:53:11.852Z,20.9317
2023-05-10T07:54:13.870Z,20.9200
2023-05-10T07:55:16.096Z,20.9115
2023-05-10T07:56:18.513Z,20.9191
2023-05-10T07:57:20.007Z,20.9025
2023-05-10T07:58:24.047Z,20.8832
2023-05-10T07:59:25.971Z,20.8339
2023-05-10T08:00:26.126Z,20.8411
2023-05-10T08:01:28.142Z,20.8588
2023-05-10T08:02:30.343Z,20.8826
2023-05-10T08:03:32.487Z,20.8464
2023-05-10T08:04:34.322Z,20.8526
2023-05-10T08:05:36.349Z,20.8680
2023-05-10T08:06:38.399Z,20.8456
2023-05-10T08:07:40.412Z,20.8624
2023-05-10T08:08:42.543Z,20.8622
2023-05-10T08:09:44.532Z,20.8499
2023-05-10T08:10:46.603Z,20.8218
2023-05-10T08:11:49.113Z,20.7932
2023-05-10T08:12:50.769Z,20.8228
2023-05-10T08:13:53.495Z,20.7468
2023-05-10T08:14:56.488Z,20.7047
2023-05-10T08:15:57.082Z,20.6926
2023-05-10T08:17:11.632Z,20.6887
2023-05-10T08:18:00.973Z,20.6986
2023-05-10T08:19:04.319Z,20.6794
2023-05-10T08:20:05.339Z,20.6800
2023-05-10T08:21:07.051Z,20.7763
2023-05-10T08:22:09.087Z,20.8255
2023-05-10T08:23:11.120Z,20.8226
2023-05-10T08:24:13.280Z,20.7910
2023-05-10T08:25:18.155Z,20.8341
2023-05-10T08:26:17.276Z,20.8615
2023-05-10T08:27:19.460Z,20.8316
2023-05-10T08:28:21.461Z,20.8744
2023-05-10T08:29:23.366Z,20.9411
2023-05-10T08:30:25.453Z,20.9395
2023-05-10T08:31:27.894Z,20.9068
2023-05-10T08:32:29.556Z,20.8943
2023-05-10T08:33:31.608Z,20.8729
2023-05-10T08:34:34.541Z,20.8877
2023-05-10T08:35:35.768Z,20.9660
2023-05-10T08:36:37.783Z,20.9711
2023-05-10T08:37:40.228Z,21.0177
2023-05-10T08:38:41.872Z,21.0381
2023-05-10T08:39:43.950Z,21.0368
2023-05-10T08:40:46.132Z,21.0533
2023-05-10T08:41:49.004Z,21.0444
2023-05-10T08:42:50.220Z,21.0744
2023-05-10T08:43:55.109Z,21.0580
2023-05-10T08:44:54.182Z,20.9512
2023-05-10T08:45:56.244Z,20.9319
2023-05-10T08:46:58.268Z,20.9534
2023-05-10T08:48:00.440Z,20.9836
2023-05-10T08:49:02.342Z,21.0276
2023-05-10T08:50:04.377Z,21.0216
2023-05-10T08:51:06.552Z,21.0171
2023-05-10T08:52:08.609Z,20.9808
2023-05-10T08:53:10.702Z,20.9456
2023-05-10T08:54:12.553Z,20.9066
2023-05-10T08:55:14.739Z,20.8392
2023-05-10T08:56:16.730Z,20.7815
2023-05-10T08:57:18.755Z,20.8598
2023-05-10T08:58:20.802Z,20.9512
2023-05-10T08:59:22.919Z,21.0586
2023-05-10T09:00:26.097Z,21.1087
2023-05-10T09:01:29.603Z,21.1124
2023-05-10T09:02:29.566Z,21.0605
2023-05-10T09:03:30.947Z,21.0983
2023-05-10T09:04:33.052Z,21.1254
2023-05-10T09:05:37.124Z,21.1603
2023-05-10T09:06:38.033Z,21.1895
2023-05-10T09:07:40.217Z,21.1835
2023-05-10T09:08:41.188Z,21.1258
2023-05-10T09:09:44.626Z,21.0662
2023-05-10T09:10:49.222Z,21.0816
2023-05-10T09:11:47.361Z,21.0483
2023-05-10T09:13:05.114Z,20.9906
2023-05-10T09:13:52.215Z,20.9718
2023-05-10T09:14:53.457Z,20.9432
2023-05-10T09:16:00.328Z,20.8974
2023-05-10T09:16:57.612Z,20.8179
2023-05-10T09:18:01.499Z,20.9054
2023-05-10T09:19:01.665Z,20.9693
2023-05-10T09:20:03.729Z,21.0208
2023-05-10T09:21:05.714Z,21.0015
2023-05-10T09:22:08.579Z,21.0048
2023-05-10T09:23:09.805Z,20.9742
2023-05-10T09:24:11.846Z,21.0338
2023-05-10T09:25:14.801Z,21.0346
2023-05-10T09:26:15.984Z,21.0350
2023-05-10T09:27:17.995Z,21.0157
2023-05-10T09:28:20.114Z,21.0138
2023-05-10T09:29:22.130Z,20.9458
2023-05-10T09:30:24.274Z,20.9397
2023-05-10T09:31:26.359Z,20.9247
2023-05-10T09:32:28.310Z,20.9091
2023-05-10T09:33:30.291Z,20.8386
2023-05-10T09:34:35.666Z,20.8339
2023-05-10T09:35:34.354Z,20.8959
2023-05-10T09:36:36.389Z,20.9370
2023-05-10T09:37:39.016Z,20.9841
2023-05-10T09:38:40.472Z,20.9674
2023-05-10T09:39:42.534Z,20.9713
2023-05-10T09:40:44.656Z,20.9235
2023-05-10T09:41:46.587Z,20.9083
2023-05-10T09:42:48.653Z,20.9415
2023-05-10T09:43:50.661Z,20.9228
2023-05-10T09:44:52.732Z,20.8896
2023-05-10T09:45:54.866Z,20.8904
2023-05-10T09:46:57.377Z,20.8781
2023-05-10T09:47:58.951Z,20.8629
2023-05-10T09:49:00.927Z,20.8512
2023-05-10T09:50:02.928Z,20.9442
2023-05-10T09:51:05.083Z,21.0087
2023-05-10T09:52:07.116Z,21.0730
2023-05-10T09:53:09.057Z,21.1038
2023-05-10T09:54:11.134Z,21.1262
2023-05-10T09:55:13.157Z,21.0865
2023-05-10T09:56:15.222Z,21.0570
2023-05-10T09:57:17.264Z,21.0553
2023-05-10T09:58:19.416Z,21.0748
2023-05-10T09:59:21.299Z,21.1149
2023-05-10T10:00:23.430Z,21.1640
2023-05-10T10:01:25.473Z,21.1695
2023-05-10T10:02:27.521Z,21.1671
2023-05-10T10:03:30.413Z,21.1823
2023-05-10T10:04:31.684Z,21.1607
2023-05-10T10:05:33.614Z,21.2112
2023-05-10T10:06:35.635Z,21.1722
2023-05-10T10:07:37.686Z,20.9873
2023-05-10T10:08:39.737Z,20.9849
2023-05-10T10:09:41.785Z,20.8614
2023-05-10T10:10:43.798Z,20.8177
2023-05-10T10:11:46.106Z,20.7782
2023-05-10T10:12:47.921Z,20.7213
2023-05-10T10:13:49.971Z,20.8006
2023-05-10T10:14:51.982Z,20.8448
2023-05-10T10:15:54.075Z,20.8232
2023-05-10T10:17:06.407Z,20.7312
2023-05-10T10:17:58.143Z,20.7501
2023-05-10T10:19:00.438Z,20.7429
2023-05-10T10:20:02.192Z,20.7119
2023-05-10T10:21:04.417Z,20.7035
2023-05-10T10:22:06.309Z,20.7086
2023-05-10T10:23:08.294Z,20.7172
2023-05-10T10:24:10.394Z,20.7945
2023-05-10T10:25:12.402Z,20.8620
2023-05-10T10:26:14.429Z,20.8472
2023-05-10T10:27:16.541Z,20.9027
2023-05-10T10:28:18.853Z,20.9294
2023-05-10T10:29:20.561Z,20.9126
2023-05-10T10:30:22.622Z,20.8968
2023-05-10T10:31:24.697Z,20.8863
2023-05-10T10:32:26.782Z,20.9220
2023-05-10T10:33:29.252Z,20.9111
2023-05-10T10:34:30.816Z,20.8639
2023-05-10T10:35:32.879Z,20.8136
2023-05-10T10:36:34.931Z,20.8401
2023-05-10T10:37:37.028Z,20.8154
2023-05-10T10:38:39.066Z,20.8388
2023-05-10T10:39:41.031Z,20.8288
2023-05-10T10:40:43.069Z,20.8269
2023-05-10T10:41:45.141Z,20.8744
2023-05-10T10:42:47.187Z,20.8721
2023-05-10T10:43:49.206Z,20.8647
2023-05-10T10:44:51.251Z,20.9580
2023-05-10T10:45:53.302Z,21.0412
2023-05-10T10:46:55.361Z,21.0399
2023-05-10T10:47:57.474Z,21.0424
2023-05-10T10:48:59.484Z,21.0309
2023-05-10T10:50:01.592Z,21.0366
2023-05-10T10:51:03.523Z,21.0689
2023-05-10T10:52:05.580Z,21.1369
2023-05-10T10:53:07.779Z,21.1324
2023-05-10T10:54:09.671Z,21.0956
2023-05-10T10:55:11.753Z,21.0327
2023-05-10T10:56:13.742Z,21.0502
2023-05-10T10:57:15.883Z,21.1449
2023-05-10T10:58:17.842Z,21.1096
2023-05-10T10:59:19.858Z,21.2283
2023-05-10T11:00:21.968Z,21.1356
2023-05-10T11:01:23.998Z,21.0824
2023-05-10T11:02:26.122Z,20.9697
2023-05-10T11:03:28.057Z,21.0147
2023-05-10T11:04:30.155Z,20.9448
2023-05-10T11:05:32.222Z,20.9292
2023-05-10T11:06:34.256Z,20.9841
2023-05-10T11:07:36.208Z,20.9282
2023-05-10T11:08:39.074Z,20.8929
2023-05-10T11:09:40.400Z,20.9565
2023-05-10T11:10:42.328Z,20.9454
2023-05-10T11:11:44.435Z,20.9419
2023-05-10T11:12:46.448Z,20.8920
2023-05-10T11:13:50.955Z,20.8896
2023-05-10T11:14:50.760Z,20.9230
2023-05-10T11:15:52.640Z,20.8779
2023-05-10T11:16:54.688Z,20.8456
2023-05-10T11:17:58.647Z,20.8811
2023-05-10T11:18:58.863Z,20.8939
2023-05-10T11:20:00.802Z,20.8429
2023-05-10T11:21:02.836Z,20.8394
2023-05-10T11:22:04.854Z,20.8968
2023-05-10T11:23:06.908Z,20.9623
2023-05-10T11:24:08.941Z,21.0167
2023-05-10T11:25:11.016Z,20.9633
2023-05-10T11:26:13.557Z,20.8302
2023-05-10T11:27:16.382Z,20.9072
2023-05-10T11:28:17.119Z,20.8629
2023-05-10T11:29:19.172Z,20.8678
2023-05-10T11:30:21.288Z,20.8571
2023-05-10T11:31:23.324Z,20.8740
2023-05-10T11:32:25.382Z,20.9114
2023-05-10T11:33:27.339Z,20.9380
2023-05-10T11:34:29.388Z,20.9512
2023-05-10T11:35:31.447Z,20.9304
2023-05-10T11:36:33.581Z,20.9645
2023-05-10T11:37:35.514Z,21.0206
2023-05-10T11:38:37.685Z,21.0360
2023-05-10T11:39:39.661Z,20.9912
2023-05-10T11:40:41.661Z,20.9896
2023-05-10T11:41:43.731Z,20.9491
2023-05-10T11:42:45.823Z,20.9382
2023-05-10T11:43:47.821Z,20.9623
2023-05-10T11:44:49.851Z,20.9514
2023-05-10T11:45:52.061Z,20.9259
2023-05-10T11:46:53.937Z,20.9662
2023-05-10T11:47:56.045Z,20.9684
2023-05-10T11:48:58.146Z,20.8867
2023-05-10T11:50:00.147Z,20.9048
2023-05-10T11:51:02.267Z,20.9208
2023-05-10T11:52:04.280Z,20.9315
2023-05-10T11:53:06.296Z,20.9604
2023-05-10T11:54:08.284Z,20.9725
2023-05-10T11:55:10.339Z,20.9323
2023-05-10T11:56:12.427Z,21.0097
2023-05-10T11:57:14.408Z,21.1112
2023-05-10T11:58:16.493Z,21.1373
2023-05-10T11:59:18.509Z,21.1506
2023-05-10T12:00:20.594Z,21.1478
2023-05-10T12:01:22.659Z,21.1367
2023-05-10T12:02:24.705Z,21.1052
2023-05-10T12:03:26.809Z,21.1001
2023-05-10T12:04:28.977Z,20.9960
2023-05-10T12:05:30.828Z,21.0179
2023-05-10T12:06:32.987Z,21.0483
2023-05-10T12:07:35.026Z,21.0352
2023-05-10T12:08:36.935Z,21.0420
2023-05-10T12:09:43.828Z,21.0177
2023-05-10T12:10:41.013Z,21.0029
2023-05-10T12:11:44.318Z,21.0210
2023-05-10T12:12:45.494Z,20.9779
2023-05-10T12:13:49.076Z,21.0077
2023-05-10T12:14:49.193Z,21.0017
2023-05-10T12:15:51.269Z,21.0005
2023-05-10T12:16:53.608Z,21.0919
2023-05-10T12:17:55.480Z,21.0890
2023-05-10T12:18:57.448Z,21.1866
2023-05-10T12:19:59.518Z,21.1133
2023-05-10T12:21:01.502Z,20.9699
2023-05-10T12:22:03.565Z,21.0672
2023-05-10T12:23:05.612Z,21.1480
2023-05-10T12:24:10.007Z,21.1786
2023-05-10T12:25:09.681Z,21.0892
2023-05-10T12:26:11.828Z,21.1794
2023-05-10T12:27:13.795Z,21.1720
2023-05-10T12:28:15.810Z,21.2168
2023-05-10T12:29:19.685Z,21.2531
2023-05-10T12:30:20.625Z,21.3237
2023-05-10T12:31:22.049Z,21.3398
2023-05-10T12:32:24.032Z,21.3669
2023-05-10T12:33:26.077Z,21.4080
2023-05-10T12:34:29.610Z,21.4185
2023-05-10T12:35:31.153Z,21.3608
2023-05-10T12:36:32.314Z,21.3365
2023-05-10T12:37:34.271Z,21.2932
2023-05-10T12:38:36.416Z,21.2045
2023-05-10T12:39:38.498Z,21.1073
2023-05-10T12:40:42.223Z,21.1013
2023-05-10T12:41:43.721Z,21.0705
2023-05-10T12:42:45.124Z,21.0520
2023-05-10T12:43:46.670Z,21.0666
2023-05-10T12:44:48.691Z,21.1412
2023-05-10T12:45:50.878Z,21.2067
2023-05-10T12:46:52.749Z,21.2537
2023-05-10T12:47:55.271Z,21.2718
2023-05-10T12:49:08.103Z,21.2188
2023-05-10T12:50:11.143Z,21.0732
2023-05-10T12:51:02.664Z,21.0794
2023-05-10T12:52:03.012Z,21.0872
2023-05-10T12:53:05.036Z,21.1011
2023-05-10T12:54:07.113Z,21.0822
2023-05-10T12:55:09.176Z,21.0615
2023-05-10T12:56:11.272Z,21.0161
2023-05-10T12:57:13.208Z,20.9951
2023-05-10T12:58:27.785Z,21.0672
2023-05-10T12:59:17.375Z,21.0894
2023-05-10T13:00:19.389Z,21.0522
2023-05-10T13:01:21.515Z,21.0311
2023-05-10T13:02:23.498Z,21.0270
2023-05-10T13:03:25.544Z,21.0520
2023-05-10T13:04:27.602Z,21.0584
2023-05-10T13:05:29.587Z,21.0923
2023-05-10T13:06:31.773Z,20.9380
2023-05-10T13:07:33.681Z,20.8988
2023-05-10T13:08:36.293Z,20.8996
2023-05-10T13:09:37.781Z,20.9263
2023-05-10T13:10:39.842Z,20.8764
2023-05-10T13:11:41.848Z,20.7840
2023-05-10T13:12:43.904Z,20.8551
2023-05-10T13:13:45.940Z,20.9421
2023-05-10T13:14:48.009Z,20.9064
2023-05-10T13:15:50.009Z,20.8869
2023-05-10T13:16:52.112Z,20.8908
2023-05-10T13:17:54.157Z,20.9265
2023-05-10T13:18:56.169Z,20.9333
2023-05-10T13:19:58.254Z,20.8968
2023-05-10T13:21:00.240Z,20.8924
2023-05-10T13:22:02.286Z,20.9387
2023-05-10T13:23:04.336Z,21.0233
2023-05-10T13:24:06.437Z,21.0783
2023-05-10T13:25:08.431Z,21.1895
2023-05-10T13:26:11.099Z,21.1999
2023-05-10T13:27:13.098Z,21.3041
2023-05-10T13:28:14.564Z,21.3790
2023-05-10T13:29:16.783Z,21.4353
2023-05-10T13:30:18.858Z,21.4941
2023-05-10T13:31:20.720Z,21.5021
2023-05-10T13:32:22.756Z,21.5966
2023-05-10T13:33:24.822Z,21.7478
2023-05-10T13:34:26.844Z,21.8077
2023-05-10T13:35:30.057Z,21.8533
2023-05-10T13:36:30.971Z,21.8383
2023-05-10T13:37:32.951Z,21.6865
2023-05-10T13:38:35.020Z,21.5288
2023-05-10T13:39:37.053Z,21.4033
2023-05-10T13:40:39.166Z,21.3150
2023-05-10T13:41:41.146Z,21.2519
2023-05-10T13:42:43.221Z,21.2332
2023-05-10T13:43:45.295Z,21.1810
2023-05-10T13:44:47.326Z,21.1535
2023-05-10T13:45:49.360Z,21.2137
2023-05-10T13:46:52.261Z,21.2747
2023-05-10T13:47:53.868Z,21.2807
2023-05-10T13:48:55.492Z,21.2973
2023-05-10T13:49:59.151Z,21.3351
2023-05-10T13:50:59.550Z,21.2480
2023-05-10T13:52:01.624Z,21.3415
2023-05-10T13:53:03.678Z,21.4212
2023-05-10T13:54:05.734Z,21.4158
2023-05-10T13:55:07.913Z,21.3431
2023-05-10T13:56:41.270Z,21.3267
2023-05-10T13:57:16.248Z,21.3413
2023-05-10T13:58:16.117Z,21.3673
2023-05-10T13:59:16.038Z,21.3608
2023-05-10T14:00:18.008Z,21.3721
2023-05-10T14:01:20.194Z,21.3684
2023-05-10T14:02:22.284Z,21.3641
2023-05-10T14:03:24.275Z,21.3519
2023-05-10T14:04:26.226Z,21.3211
2023-05-10T14:05:28.469Z,21.2747
2023-05-10T14:06:30.236Z,21.2149
2023-05-10T14:07:32.281Z,21.1782
2023-05-10T14:08:34.371Z,21.0978
2023-05-10T14:09:36.385Z,21.1498
2023-05-10T14:10:40.255Z,21.1137
2023-05-10T14:11:40.525Z,21.2665
2023-05-10T14:12:42.528Z,21.3226
2023-05-10T14:13:44.578Z,21.3250
2023-05-10T14:14:47.318Z,21.2630
2023-05-10T14:15:48.648Z,21.2320
2023-05-10T14:16:50.910Z,21.1319
2023-05-10T14:17:52.797Z,21.2147
2023-05-10T14:18:54.796Z,21.3608
2023-05-10T14:19:56.853Z,21.3842
2023-05-10T14:20:59.353Z,21.3486
2023-05-10T14:22:00.948Z,21.3696
2023-05-10T14:23:02.965Z,21.3332
2023-05-10T14:24:04.981Z,21.3864
2023-05-10T14:25:07.623Z,21.4201
2023-05-10T14:26:09.318Z,21.4522
2023-05-10T14:27:11.321Z,21.4450
2023-05-10T14:28:13.284Z,21.4099
2023-05-10T14:29:15.200Z,21.3612
2023-05-10T14:30:17.309Z,21.2874
2023-05-10T14:31:19.744Z,21.2312
2023-05-10T14:32:21.424Z,21.1593
2023-05-10T14:33:23.627Z,21.1258
2023-05-10T14:34:25.519Z,21.1517
2023-05-10T14:35:27.473Z,21.1923
2023-05-10T14:36:31.207Z,21.0637
2023-05-10T14:37:31.639Z,21.1529
2023-05-10T14:38:33.660Z,21.3022
2023-05-10T14:39:35.689Z,21.3230
2023-05-10T14:40:37.720Z,21.3201
2023-05-10T14:41:42.662Z,21.2570
2023-05-10T14:42:41.761Z,21.2828
2023-05-10T14:43:43.822Z,21.2778
2023-05-10T14:44:45.881Z,21.2217
2023-05-10T14:45:47.950Z,21.2242
2023-05-10T14:46:50.076Z,21.2381
2023-05-10T14:47:53.764Z,21.2244
2023-05-10T14:48:54.062Z,21.1601
2023-05-10T14:49:56.089Z,21.2092
2023-05-10T14:50:58.172Z,21.2320
2023-05-10T14:52:00.367Z,21.2040
2023-05-10T14:53:03.728Z,21.2147
2023-05-10T14:54:04.285Z,21.2199
2023-05-10T14:55:06.930Z,21.2030
2023-05-10T14:56:08.402Z,21.2630
2023-05-10T14:57:10.396Z,21.2379
2023-05-10T14:58:12.507Z,21.2330
2023-05-10T14:59:14.515Z,21.2353
2023-05-10T15:00:16.772Z,21.2211
2023-05-10T15:01:18.582Z,21.1751
2023-05-10T15:02:20.709Z,21.2143
2023-05-10T15:03:22.820Z,21.2616
2023-05-10T15:04:25.964Z,21.1093
2023-05-10T15:05:26.857Z,21.0915
2023-05-10T15:06:28.777Z,21.1038
2023-05-10T15:07:30.986Z,21.1441
2023-05-10T15:08:32.920Z,21.1804
2023-05-10T15:09:34.913Z,21.2213
2023-05-10T15:10:36.926Z,21.2309
2023-05-10T15:11:39.071Z,21.2299
2023-05-10T15:12:41.045Z,21.2270
2023-05-10T15:13:43.090Z,21.2229
2023-05-10T15:14:45.102Z,21.2622
2023-05-10T15:15:47.204Z,21.2277
2023-05-10T15:16:49.212Z,21.2273
2023-05-10T15:17:51.425Z,21.2100
2023-05-10T15:18:53.364Z,21.1151
2023-05-10T15:19:55.358Z,21.1814
2023-05-10T15:20:57.458Z,21.2437
2023-05-10T15:21:59.524Z,21.1693
2023-05-10T15:23:01.503Z,21.1683
2023-05-10T15:24:03.526Z,21.1761
2023-05-10T15:25:05.624Z,21.1545
2023-05-10T15:26:07.667Z,21.1326
2023-05-10T15:27:09.693Z,21.1350
2023-05-10T15:28:12.661Z,21.1338
2023-05-10T15:29:13.736Z,21.1344
2023-05-10T15:30:15.851Z,21.1445
2023-05-10T15:31:17.857Z,21.1537
2023-05-10T15:32:19.910Z,21.1096
2023-05-10T15:33:22.608Z,21.0512
2023-05-10T15:34:24.029Z,21.0438
2023-05-10T15:35:26.516Z,21.0794
2023-05-10T15:36:28.063Z,21.0539
2023-05-10T15:37:30.117Z,21.0646
2023-05-10T15:38:32.129Z,21.0925
2023-05-10T15:39:34.209Z,21.1381
2023-05-10T15:40:36.241Z,21.1354
2023-05-10T15:41:38.271Z,21.1488
2023-05-10T15:42:40.346Z,21.1714
2023-05-10T15:43:42.571Z,21.0911
2023-05-10T15:44:44.461Z,21.1765
2023-05-10T15:45:46.454Z,21.2244
2023-05-10T15:46:49.438Z,21.1938
2023-05-10T15:47:50.624Z,21.1980
2023-05-10T15:48:52.656Z,21.1428
2023-05-10T15:49:55.071Z,21.0707
2023-05-10T15:50:56.740Z,21.0800
2023-05-10T15:51:58.709Z,21.0925
2023-05-10T15:53:00.934Z,21.0824
2023-05-10T15:54:07.625Z,21.1679
2023-05-10T15:55:04.921Z,21.1819
2023-05-10T15:56:06.917Z,21.2404
2023-05-10T15:57:09.024Z,21.2663
2023-05-10T15:58:13.618Z,21.2453
2023-05-10T15:59:13.035Z,21.2646
2023-05-10T16:00:15.104Z,21.2683
2023-05-10T16:01:17.202Z,21.2373
2023-05-10T16:02:19.241Z,21.2244
2023-05-10T16:03:21.259Z,21.2022
2023-05-10T16:04:23.274Z,21.1819
2023-05-10T16:05:25.346Z,21.1839
2023-05-10T16:06:27.417Z,21.1488
2023-05-10T16:07:29.588Z,21.1864
2023-05-10T16:08:36.697Z,21.2155
2023-05-10T16:09:33.629Z,21.2086
2023-05-10T16:10:35.565Z,21.1845
2023-05-10T16:11:37.785Z,21.1330
2023-05-10T16:12:39.726Z,21.1890
2023-05-10T16:13:41.711Z,21.1699
2023-05-10T16:14:43.740Z,21.2410
2023-05-10T16:15:45.927Z,21.1457
2023-05-10T16:16:47.924Z,21.1036
2023-05-10T16:17:50.108Z,21.0716
2023-05-10T16:18:52.242Z,21.0153
2023-05-10T16:19:54.005Z,21.0465
2023-05-10T16:20:56.023Z,21.0642
2023-05-10T16:21:58.490Z,21.0722
2023-05-10T16:23:00.127Z,21.1184
2023-05-10T16:24:02.177Z,21.1697
2023-05-10T16:25:04.211Z,21.2320
2023-05-10T16:26:06.267Z,21.1564
2023-05-10T16:27:08.278Z,21.1229
2023-05-10T16:28:10.420Z,21.0590
2023-05-10T16:29:12.410Z,21.0557
2023-05-10T16:30:14.408Z,20.9855
2023-05-10T16:31:16.464Z,20.9902
2023-05-10T16:32:18.524Z,21.0397
2023-05-10T16:33:20.630Z,21.0679
2023-05-10T16:34:22.596Z,21.0598
2023-05-10T16:35:24.654Z,21.0857
2023-05-10T16:36:26.892Z,21.1428
2023-05-10T16:37:28.838Z,21.1434
2023-05-10T16:38:30.754Z,21.1172
2023-05-10T16:39:32.833Z,21.0757
2023-05-10T16:40:43.677Z,21.0046
2023-05-10T16:41:36.874Z,20.9629
2023-05-10T16:42:38.977Z,20.8503
2023-05-10T16:43:41.059Z,20.7951
2023-05-10T16:44:43.112Z,20.7758
2023-05-10T16:45:45.762Z,20.8208
2023-05-10T16:46:47.738Z,20.9050
2023-05-10T16:47:49.300Z,20.9984
2023-05-10T16:48:51.308Z,21.0097
2023-05-10T16:49:53.305Z,21.0927
2023-05-10T16:50:55.409Z,21.1671
2023-05-10T16:51:57.416Z,21.2219
2023-05-10T16:52:59.577Z,21.1880
2023-05-10T16:54:01.523Z,21.1890
2023-05-10T16:55:03.602Z,21.1728
2023-05-10T16:56:05.564Z,21.0771
2023-05-10T16:57:07.583Z,20.9999
2023-05-10T16:58:09.643Z,20.9639
2023-05-10T16:59:11.822Z,20.9861
2023-05-10T17:00:14.769Z,20.9894
2023-05-10T17:01:15.820Z,21.0198